Main page
METAR-TAF:

METAR-TAF

Airports :

Black River Falls Area Airport

Black River Falls, Wisconsin, United States

latitude: 44-15-03N, longitude: 090-51-19W, elevation: 836 ft

Current weather observation

The report was made 26 minutes ago, at 07:55 UTC
Calm wind
Temperature 48°F
Humidity 100%
Pressure 29.80 in. Hg
Visibility: 7 miles
Clear sky

METAR: KBCK 240755Z AUTO 00000KT 7SM CLR 09/09 A2980 RMK AO2 T00920092

Time: 03:21 (08:21 UTC)


TAF: missing

Weather observations and forecasts of more than 4000 airports (METAR and TAF reports).

The available stations are represented by yellow and red dots on the map.

Hover mouse over dot to see the name of the station.

Then click to see weather observations and forecasts.

To change the map : click on the green buttons with a black cross to zoom in, on the green button with a dash to zoom out, or on the green arrows for adjacent maps.


METAR-TAF: